createdAt,value
2022-10-14T00:01:38.180Z,100.00
2022-10-14T00:11:10.067Z,100.00
2022-10-14T00:20:46.301Z,100.00
2022-10-14T00:30:19.072Z,100.00
2022-10-14T00:39:56.992Z,99.09
2022-10-14T00:49:28.007Z,98.99
2022-10-14T00:59:04.009Z,98.70
2022-10-14T01:08:38.255Z,98.75
2022-10-14T01:18:10.668Z,98.54
2022-10-14T01:27:47.012Z,98.76
2022-10-14T01:37:19.387Z,99.01
2022-10-14T01:46:53.854Z,99.30
2022-10-14T01:56:30.052Z,99.98
2022-10-14T02:06:04.420Z,99.87
2022-10-14T02:15:38.491Z,100.00
2022-10-14T02:25:11.969Z,100.00
2022-10-14T02:34:45.958Z,100.00
2022-10-14T02:44:20.310Z,100.00
2022-10-14T02:53:54.935Z,100.00
2022-10-14T03:03:31.233Z,100.00
2022-10-14T03:13:05.330Z,100.00
2022-10-14T03:22:37.844Z,100.00
2022-10-14T03:32:12.043Z,100.00
2022-10-14T03:41:48.087Z,100.00
2022-10-14T03:51:22.232Z,100.00
2022-10-14T04:00:55.170Z,100.00
2022-10-14T04:10:29.455Z,100.00
2022-10-14T04:20:04.222Z,100.00
2022-10-14T04:29:40.078Z,100.00
2022-10-14T04:39:14.552Z,100.00
2022-10-14T04:48:49.022Z,100.00
2022-10-14T04:58:21.118Z,100.00
2022-10-14T05:07:55.619Z,100.00
2022-10-14T05:17:31.527Z,100.00
2022-10-14T05:27:05.856Z,100.00
2022-10-14T05:36:39.999Z,100.00
2022-10-14T05:46:12.806Z,100.00
2022-10-14T05:55:47.133Z,100.00
2022-10-14T06:05:21.623Z,100.00
2022-10-14T06:14:56.116Z,100.00
2022-10-14T06:24:30.665Z,100.00
2022-10-14T06:34:04.416Z,100.00
2022-10-14T06:43:39.038Z,100.00
2022-10-14T06:53:13.638Z,100.00
2022-10-14T07:02:49.614Z,100.00
2022-10-14T07:12:25.394Z,100.00
2022-10-14T07:21:56.986Z,100.00
2022-10-14T07:31:31.208Z,100.00
2022-10-14T07:41:05.592Z,100.00
2022-10-14T07:50:42.151Z,100.00
2022-10-14T08:00:14.831Z,100.00
2022-10-14T08:09:49.540Z,100.00
2022-10-14T08:19:24.133Z,100.00
2022-10-14T08:29:03.160Z,100.00
2022-10-14T08:38:33.319Z,100.00
2022-10-14T08:48:09.219Z,100.00
2022-10-14T08:57:42.329Z,100.00
2022-10-14T08:58:46.435Z,100.00
2022-10-14T09:08:20.461Z,100.00
2022-10-14T09:09:22.792Z,100.00
2022-10-14T09:10:26.885Z,100.00
2022-10-14T09:20:00.334Z,100.00
2022-10-14T09:21:04.322Z,100.00
2022-10-14T09:22:08.304Z,100.00
2022-10-14T09:23:10.613Z,99.92
2022-10-14T09:24:13.173Z,99.49
2022-10-14T09:25:15.562Z,99.15
2022-10-14T09:26:19.683Z,99.28
2022-10-14T09:27:22.312Z,99.40
2022-10-14T09:28:24.608Z,99.26
2022-10-14T09:29:26.945Z,99.05
2022-10-14T09:30:31.038Z,98.21
2022-10-14T09:32:35.917Z,97.41
2022-10-14T09:33:39.727Z,97.25
2022-10-14T09:34:42.549Z,97.47
2022-10-14T09:35:45.037Z,97.39
2022-10-14T09:36:47.526Z,96.62
2022-10-14T09:37:50.046Z,96.57
2022-10-14T09:38:52.659Z,96.48
2022-10-14T09:39:55.106Z,96.83
2022-10-14T09:40:57.523Z,96.68
2022-10-14T09:42:00.013Z,96.42
2022-10-14T09:43:02.630Z,96.02
2022-10-14T09:44:05.281Z,96.01
2022-10-14T09:46:10.151Z,96.56
2022-10-14T09:47:13.037Z,96.39
2022-10-14T09:48:15.272Z,95.75
2022-10-14T09:49:17.701Z,95.86
2022-10-14T09:50:21.783Z,95.74
2022-10-14T09:51:24.094Z,95.69
2022-10-14T09:52:28.217Z,95.61
2022-10-14T09:53:30.600Z,95.64
2022-10-14T09:54:33.117Z,95.40
2022-10-14T09:55:35.614Z,95.39
2022-10-14T09:56:40.617Z,95.54
2022-10-14T09:57:40.461Z,95.73
2022-10-14T09:58:42.985Z,95.79
2022-10-14T09:59:45.507Z,95.91
2022-10-14T10:00:47.938Z,95.82
2022-10-14T10:01:50.467Z,96.06
2022-10-14T10:02:52.869Z,96.10
2022-10-14T10:03:55.548Z,96.59
2022-10-14T10:04:57.864Z,96.24
2022-10-14T10:06:00.325Z,96.03
2022-10-14T10:07:04.433Z,96.06
2022-10-14T10:08:10.592Z,95.96
2022-10-14T10:09:14.406Z,95.83
2022-10-14T10:10:16.719Z,95.90
2022-10-14T10:11:19.378Z,95.38
2022-10-14T10:12:21.809Z,95.38
2022-10-14T10:13:24.318Z,95.12
2022-10-14T10:14:26.798Z,95.41
2022-10-14T10:15:30.873Z,95.35
2022-10-14T10:16:35.821Z,95.39
2022-10-14T10:17:38.129Z,95.38
2022-10-14T10:18:40.706Z,95.59
2022-10-14T10:19:43.133Z,94.94
2022-10-14T10:20:47.253Z,94.96
2022-10-14T10:30:19.668Z,96.31
2022-10-14T10:31:22.319Z,96.82
2022-10-14T10:32:24.973Z,96.75
2022-10-14T10:33:29.029Z,96.60
2022-10-14T10:34:33.392Z,96.26
2022-10-14T10:35:37.646Z,95.93
2022-10-14T10:36:41.626Z,95.67
2022-10-14T10:37:45.610Z,95.37
2022-10-14T10:38:49.483Z,94.81
2022-10-14T10:39:51.855Z,94.75
2022-10-14T10:40:54.333Z,94.56
2022-10-14T10:41:56.822Z,94.33
2022-10-14T10:42:59.421Z,94.38
2022-10-14T10:44:02.016Z,94.06
2022-10-14T10:45:04.495Z,94.27
2022-10-14T10:46:06.961Z,94.52
2022-10-14T10:47:09.431Z,94.66
2022-10-14T10:48:11.905Z,95.04
2022-10-14T10:49:14.404Z,95.29
2022-10-14T10:50:17.138Z,95.41
2022-10-14T10:51:19.503Z,95.15
2022-10-14T10:52:24.052Z,95.47
2022-10-14T10:53:27.723Z,95.63
2022-10-14T10:54:30.064Z,95.53
2022-10-14T10:55:32.570Z,95.24
2022-10-14T10:56:34.973Z,95.62
2022-10-14T10:57:37.525Z,95.83
2022-10-14T10:58:41.185Z,96.38
2022-10-14T10:59:45.484Z,96.47
2022-10-14T11:00:47.763Z,96.76
2022-10-14T11:01:51.902Z,96.61
2022-10-14T11:02:54.158Z,96.72
2022-10-14T11:03:58.141Z,96.98
2022-10-14T11:05:02.184Z,97.07
2022-10-14T11:06:04.533Z,97.00
2022-10-14T11:07:07.008Z,96.95
2022-10-14T11:08:09.460Z,96.86
2022-10-14T11:09:13.618Z,97.11
2022-10-14T11:10:16.275Z,97.14
2022-10-14T11:11:18.615Z,97.17
2022-10-14T11:12:21.160Z,97.48
2022-10-14T11:13:23.491Z,97.31
2022-10-14T11:14:25.996Z,97.17
2022-10-14T11:15:28.489Z,97.60
2022-10-14T11:16:30.996Z,97.34
2022-10-14T11:17:33.565Z,97.43
2022-10-14T11:18:36.001Z,97.72
2022-10-14T11:19:38.443Z,97.52
2022-10-14T11:20:42.550Z,97.41
2022-10-14T11:21:46.881Z,97.67
2022-10-14T11:22:50.815Z,97.73
2022-10-14T11:23:53.232Z,97.80
2022-10-14T11:24:55.710Z,97.77
2022-10-14T11:25:58.215Z,97.83
2022-10-14T11:27:02.277Z,98.11
2022-10-14T11:28:06.349Z,97.92
2022-10-14T11:29:08.649Z,97.92
2022-10-14T11:30:11.105Z,97.88
2022-10-14T11:31:15.164Z,97.82
2022-10-14T11:32:19.104Z,97.83
2022-10-14T11:33:21.578Z,97.59
2022-10-14T11:34:23.966Z,97.50
2022-10-14T11:43:56.651Z,100.00
2022-10-14T11:44:59.165Z,100.00
2022-10-14T11:46:01.736Z,100.00
2022-10-14T11:47:06.779Z,100.00
2022-10-14T11:48:09.104Z,100.00
2022-10-14T11:49:11.556Z,100.00
2022-10-14T11:50:15.628Z,100.00
2022-10-14T11:51:18.001Z,100.00
2022-10-14T11:52:20.508Z,100.00
2022-10-14T11:53:24.643Z,100.00
2022-10-14T11:54:26.980Z,100.00
2022-10-14T11:55:31.026Z,100.00
2022-10-14T11:56:34.916Z,100.00
2022-10-14T11:57:38.870Z,100.00
2022-10-14T11:58:41.282Z,100.00
2022-10-14T11:59:43.702Z,100.00
2022-10-14T12:00:46.140Z,100.00
2022-10-14T12:01:51.560Z,100.00
2022-10-14T12:02:55.463Z,100.00
2022-10-14T12:03:57.819Z,100.00
2022-10-14T12:05:01.940Z,100.00
2022-10-14T12:06:05.973Z,100.00
2022-10-14T12:07:08.162Z,100.00
2022-10-14T12:08:10.631Z,100.00
2022-10-14T12:09:14.662Z,100.00
2022-10-14T12:10:16.965Z,100.00
2022-10-14T12:11:21.071Z,100.00
2022-10-14T12:12:25.229Z,100.00
2022-10-14T12:13:27.441Z,100.00
2022-10-14T12:14:29.823Z,100.00
2022-10-14T12:15:32.281Z,100.00
2022-10-14T12:16:34.786Z,100.00
2022-10-14T12:17:37.285Z,100.00
2022-10-14T12:18:39.732Z,100.00
2022-10-14T12:19:42.212Z,100.00
2022-10-14T12:20:44.853Z,100.00
2022-10-14T12:21:48.275Z,100.00
2022-10-14T12:22:52.619Z,100.00
2022-10-14T12:23:54.905Z,100.00
2022-10-14T12:25:00.274Z,100.00
2022-10-14T12:26:02.504Z,100.00
2022-10-14T12:27:04.977Z,100.00
2022-10-14T12:28:08.963Z,100.00
2022-10-14T12:29:12.385Z,100.00
2022-10-14T12:30:14.730Z,100.00
2022-10-14T12:31:18.088Z,100.00
2022-10-14T12:32:20.976Z,100.00
2022-10-14T12:33:23.274Z,100.00
2022-10-14T12:34:25.501Z,100.00
2022-10-14T12:35:28.007Z,100.00
2022-10-14T12:36:30.542Z,100.00
2022-10-14T12:37:35.110Z,100.00
2022-10-14T12:38:36.971Z,100.00
2022-10-14T12:39:39.452Z,100.00
2022-10-14T12:40:41.851Z,100.00
2022-10-14T12:50:14.832Z,100.00
2022-10-14T12:51:19.003Z,100.00
2022-10-14T12:52:21.423Z,100.00
2022-10-14T12:53:23.920Z,100.00
2022-10-14T12:54:26.408Z,100.00
2022-10-14T12:55:30.450Z,100.00
2022-10-14T12:56:32.856Z,100.00
2022-10-14T12:57:36.250Z,100.00
2022-10-14T12:58:40.353Z,100.00
2022-10-14T12:59:45.242Z,100.00
2022-10-14T13:00:47.452Z,100.00
2022-10-14T13:01:50.044Z,100.00
2022-10-14T13:02:54.071Z,100.00
2022-10-14T13:03:57.422Z,100.00
2022-10-14T13:05:00.758Z,100.00
2022-10-14T13:06:03.158Z,100.00
2022-10-14T13:07:07.584Z,100.00
2022-10-14T13:08:08.106Z,100.00
2022-10-14T13:09:10.519Z,100.00
2022-10-14T13:10:14.607Z,100.00
2022-10-14T13:11:17.042Z,100.00
2022-10-14T13:12:19.484Z,100.00
2022-10-14T13:13:22.818Z,100.00
2022-10-14T13:14:26.039Z,100.00
2022-10-14T13:15:28.366Z,100.00
2022-10-14T13:16:32.495Z,100.00
2022-10-14T13:17:34.762Z,100.00
2022-10-14T13:18:38.237Z,100.00
2022-10-14T13:28:09.198Z,100.00
2022-10-14T13:29:13.343Z,100.00
2022-10-14T13:30:17.312Z,100.00
2022-10-14T13:31:21.276Z,100.00
2022-10-14T13:32:27.200Z,100.00
2022-10-14T13:33:30.451Z,100.00
2022-10-14T13:34:34.362Z,100.00
2022-10-14T13:35:36.703Z,100.00
2022-10-14T13:36:40.762Z,100.00
2022-10-14T13:37:45.869Z,100.00
2022-10-14T13:38:45.495Z,100.00
2022-10-14T13:39:47.972Z,100.00
2022-10-14T13:40:50.448Z,100.00
2022-10-14T13:41:52.876Z,100.00
2022-10-14T13:42:55.383Z,100.00
2022-10-14T13:43:57.829Z,100.00
2022-10-14T13:45:01.889Z,100.00
2022-10-14T13:46:04.301Z,100.00
2022-10-14T13:47:06.773Z,100.00
2022-10-14T13:56:39.033Z,100.00
2022-10-14T13:58:07.779Z,100.00
2022-10-14T13:58:44.083Z,100.00
2022-10-14T14:00:08.980Z,100.00
2022-10-14T14:00:49.078Z,100.00
2022-10-14T14:01:53.296Z,100.00
2022-10-14T14:03:01.002Z,100.00
2022-10-14T14:03:59.535Z,100.00
2022-10-14T14:05:02.071Z,100.00
2022-10-14T14:06:04.545Z,100.00
2022-10-14T14:07:35.366Z,100.00
2022-10-14T14:09:13.489Z,100.00
2022-10-14T14:10:15.830Z,100.00
2022-10-14T14:11:19.949Z,100.00
2022-10-14T14:12:22.338Z,100.00
2022-10-14T14:13:26.380Z,100.00
2022-10-14T14:14:28.711Z,100.00
2022-10-14T14:15:31.169Z,100.00
2022-10-14T14:16:33.639Z,100.00
2022-10-14T14:17:36.105Z,100.00
2022-10-14T14:18:43.547Z,100.00
2022-10-14T14:19:40.950Z,100.00
2022-10-14T14:20:43.550Z,100.00
2022-10-14T14:21:45.915Z,100.00
2022-10-14T14:22:48.449Z,100.00
2022-10-14T14:23:52.499Z,100.00
2022-10-14T14:24:55.239Z,100.00
2022-10-14T14:26:18.208Z,100.00
2022-10-14T14:27:01.227Z,100.00
2022-10-14T14:28:03.746Z,100.00
2022-10-14T14:29:06.209Z,100.00
2022-10-14T14:30:08.703Z,100.00
2022-10-14T14:31:12.765Z,100.00
2022-10-14T14:32:16.668Z,100.00
2022-10-14T14:33:19.059Z,100.00
2022-10-14T14:34:21.491Z,100.00
2022-10-14T14:35:24.001Z,100.00
2022-10-14T14:36:28.002Z,100.00
2022-10-14T14:38:34.542Z,100.00
2022-10-14T14:39:36.869Z,100.00
2022-10-14T14:40:42.260Z,100.00
2022-10-14T14:41:47.693Z,100.00
2022-10-14T14:42:50.000Z,100.00
2022-10-14T14:44:07.478Z,100.00
2022-10-14T14:44:56.480Z,100.00
2022-10-14T14:45:58.829Z,100.00
2022-10-14T14:47:01.276Z,100.00
2022-10-14T14:48:03.714Z,100.00
2022-10-14T14:49:06.165Z,100.00
2022-10-14T14:50:29.366Z,100.00
2022-10-14T14:51:14.186Z,100.00
2022-10-14T14:52:16.512Z,100.00
2022-10-14T14:53:18.965Z,100.00
2022-10-14T14:54:21.466Z,100.00
2022-10-14T14:55:25.485Z,100.00
2022-10-14T14:56:27.883Z,100.00
2022-10-14T14:57:30.351Z,100.00
2022-10-14T14:58:32.877Z,100.00
2022-10-14T14:59:35.307Z,100.00
2022-10-14T15:00:37.834Z,100.00
2022-10-14T15:01:40.351Z,100.00
2022-10-14T15:02:42.839Z,100.00
2022-10-14T15:04:11.641Z,100.00
2022-10-14T15:04:48.739Z,100.00
2022-10-14T15:05:51.155Z,100.00
2022-10-14T15:06:55.202Z,100.00
2022-10-14T15:07:57.572Z,100.00
2022-10-14T15:09:00.052Z,100.00
2022-10-14T15:10:04.198Z,100.00
2022-10-14T15:11:07.602Z,100.00
2022-10-14T15:12:09.921Z,100.00
2022-10-14T15:13:14.098Z,100.00
2022-10-14T15:14:18.918Z,100.00
2022-10-14T15:15:19.130Z,100.00
2022-10-14T15:16:21.585Z,100.00
2022-10-14T15:17:24.114Z,100.00
2022-10-14T15:18:26.710Z,100.00
2022-10-14T15:19:30.200Z,100.00
2022-10-14T15:20:31.688Z,100.00
2022-10-14T15:30:04.438Z,100.00
2022-10-14T15:31:07.984Z,100.00
2022-10-14T15:40:40.602Z,100.00
2022-10-14T15:41:43.187Z,100.00
2022-10-14T15:42:45.706Z,100.00
2022-10-14T15:43:48.222Z,100.00
2022-10-14T15:44:52.293Z,100.00
2022-10-14T15:45:54.639Z,100.00
2022-10-14T15:46:58.795Z,100.00
2022-10-14T15:48:01.134Z,100.00
2022-10-14T15:49:05.176Z,100.00
2022-10-14T15:50:07.553Z,100.00
2022-10-14T15:51:10.001Z,100.00
2022-10-14T15:52:12.487Z,100.00
2022-10-14T15:53:16.528Z,100.00
2022-10-14T15:54:18.930Z,100.00
2022-10-14T15:55:21.383Z,100.00
2022-10-14T15:56:23.867Z,100.00
2022-10-14T15:57:26.551Z,100.00
2022-10-14T15:58:28.844Z,100.00
2022-10-14T15:59:31.329Z,100.00
2022-10-14T16:09:03.916Z,100.00
2022-10-14T16:18:39.894Z,100.00
2022-10-14T16:19:42.276Z,100.00
2022-10-14T16:20:44.762Z,100.00
2022-10-14T16:30:18.225Z,100.00
2022-10-14T16:39:54.216Z,100.00
2022-10-14T16:49:26.815Z,100.00
2022-10-14T16:59:01.342Z,100.00
2022-10-14T17:08:37.184Z,100.00
2022-10-14T17:18:12.552Z,100.00
2022-10-14T17:27:44.864Z,100.00
2022-10-14T17:37:20.958Z,100.00
2022-10-14T17:46:53.952Z,100.00
2022-10-14T17:56:30.547Z,100.00
2022-10-14T18:06:03.625Z,100.00
2022-10-14T18:07:08.779Z,100.00
2022-10-14T18:16:40.646Z,100.00
2022-10-14T18:26:15.295Z,100.00
2022-10-14T18:35:49.686Z,100.00
2022-10-14T18:45:24.420Z,100.00
2022-10-14T18:54:58.404Z,100.00
2022-10-14T19:04:34.904Z,100.00
2022-10-14T19:14:09.443Z,100.00
2022-10-14T19:23:44.245Z,100.00
2022-10-14T19:33:17.167Z,100.00
2022-10-14T19:42:51.891Z,100.00
2022-10-14T19:52:26.000Z,100.00
2022-10-14T20:02:00.514Z,100.00
2022-10-14T20:11:34.952Z,100.00
2022-10-14T20:21:09.928Z,100.00
2022-10-14T20:30:44.130Z,100.00
2022-10-14T20:40:21.333Z,100.00
2022-10-14T20:49:53.153Z,100.00
2022-10-14T20:59:29.362Z,100.00
2022-10-14T21:09:01.555Z,100.00
2022-10-14T21:18:36.409Z,100.00
2022-10-14T21:28:09.506Z,100.00
2022-10-14T21:37:45.735Z,100.00
2022-10-14T21:47:17.618Z,100.00
2022-10-14T21:56:51.860Z,100.00
2022-10-14T22:06:26.118Z,100.00
2022-10-14T22:16:00.258Z,100.00
2022-10-14T22:25:36.303Z,100.00
2022-10-14T22:35:10.301Z,100.00
2022-10-14T22:44:43.303Z,100.00
2022-10-14T22:54:17.841Z,100.00
2022-10-14T23:03:52.022Z,100.00
2022-10-14T23:13:25.747Z,100.00
2022-10-14T23:22:59.815Z,100.00
2022-10-14T23:32:33.803Z,100.00
2022-10-14T23:42:07.962Z,100.00
2022-10-14T23:51:43.561Z,100.00
